Aviation Digital Data Service (ADDS)

Output produced by METARs form (1522 UTC 23 January 2019)
found at http://www.aviationweather.gov/metar/data/
 
Forecast for: HESN (ASWAN (CIV/MIL) , EG)
Text: TAF HESN 231100Z 2312/2418 36008KT CAVOK
Forecast period: 1200 UTC 23 January 2019 to 1800 UTC 24 January 2019
Forecast type: FROM: standard forecast or significant change
Winds: from the N (360 degrees) at 9 MPH (8 knots; 4.1 m/s)
Visibility: 6 or more miles 10+ km)
Ceiling: unknown
Clouds: missing
Weather: NSW  (no significant weather)